Terminal Aerodrome Forecast
Issued by NWS

Home | Current Version | Previous Version | Text Only | Print | Product List | Glossary On
Versions: 1 2 3 4 5 6 7 8 9 10 11 12 13 14
000
FTUS43 KDDC 031127
TAFGCK
TAF
KGCK 031127Z 0312/0412 27007KT P6SM VCSH BKN090
     FM031400 34013G20KT P6SM SCT070
     FM040000 30007KT P6SM SKC=

USA.gov is the U.S. government's official web portal to all federal, state and local government web resources and services.